Time;durP1;ratioP1;P1;durP2;ratioP2;P2;SDS_P1;SDS_P2;PMS_P1;PMS_P2;Temp;Humidity;BMP_temperature;BMP_pressure;BME280_temperature;BME280_humidity;BME280_pressure;Samples;Min_cycle;Max_cycle;Signal;HPM_P1;HPM_P2
2022/11/13 00:01:43;;;;;;;;;;;;;;;13.76;60.18;102898.22;5048148;28;19917;-72
2022/11/13 00:04:09;;;;;;;;;;;;;;;13.82;60.15;102894.75;5050041;28;19923;-73
2022/11/13 00:06:34;;;;;;;;;;;;;;;13.87;59.67;102889.59;5050762;28;19939;-74
2022/11/13 00:09:01;;;;;;;;;;;;;;;13.84;59.27;102891.84;5049088;28;20514;-75
2022/11/13 00:11:26;;;;;;;;;;;;;;;13.76;59.58;102897.38;5050973;28;19912;-74
2022/11/13 00:13:52;;;;;;;;;;;;;;;13.69;59.66;102893.81;5048098;28;19919;-77
2022/11/13 00:16:18;;;;;;;;;;;;;;;13.66;59.64;102892.31;5050454;28;19924;-75
2022/11/13 00:18:43;;;;;;;;;;;;;;;13.62;59.72;102901.03;5047745;28;19996;-72
2022/11/13 00:21:13;;;;;;;;;;;;;;;13.57;59.69;102889.94;5050480;28;19986;-73
2022/11/13 00:23:38;;;;;;;;;;;;;;;13.63;59.54;102886.47;5049331;28;19919;-73
2022/11/13 00:26:07;;;;;;;;;;;;;;;13.62;59.58;102885.63;5050450;28;19943;-74
2022/11/13 00:28:33;;;;;;;;;;;;;;;13.61;59.52;102878.56;5050872;28;19920;-74
2022/11/13 00:30:59;;;;;;;;;;;;;;;13.62;59.42;102871.31;5048688;28;19920;-75
2022/11/13 00:33:24;;;;;;;;;;;;;;;13.52;59.50;102865.41;5050681;28;20349;-74
2022/11/13 00:35:49;;;;;;;;;;;;;;;13.54;59.58;102864.16;5044996;28;19928;-73
2022/11/13 00:38:14;;;;;;;;;;;;;;;13.59;59.35;102863.59;5050013;28;20342;-75
2022/11/13 00:40:40;;;;;;;;;;;;;;;13.49;60.21;102865.78;5050183;28;20384;-74
2022/11/13 00:43:05;;;;;;;;;;;;;;;13.56;59.57;102867.50;5050203;28;20360;-73
2022/11/13 00:45:30;;;;;;;;;;;;;;;13.52;59.36;102865.41;5050306;28;20255;-74
2022/11/13 00:47:55;;;;;;;;;;;;;;;13.50;59.50;102867.47;5047508;28;20441;-73
2022/11/13 00:50:21;;;;;;;;;;;;;;;13.59;59.24;102867.13;5050212;28;19996;-74
2022/11/13 00:52:47;;;;;;;;;;;;;;;13.60;59.46;102855.28;5048924;28;19917;-73
2022/11/13 00:55:12;;;;;;;;;;;;;;;13.56;58.84;102851.28;5049747;28;19916;-74
2022/11/13 00:57:37;;;;;;;;;;;;;;;13.53;59.06;102858.97;5050585;28;20003;-73
2022/11/13 01:00:03;;;;;;;;;;;;;;;13.62;59.51;102847.00;5050221;28;19919;-71
2022/11/13 01:02:28;;;;;;;;;;;;;;;13.62;59.51;102845.09;5051014;28;20657;-72
2022/11/13 01:04:53;;;;;;;;;;;;;;;13.51;59.72;102850.22;5050600;28;19917;-72
2022/11/13 01:07:19;;;;;;;;;;;;;;;13.52;59.42;102844.59;5050984;28;19917;-73
2022/11/13 01:09:48;;;;;;;;;;;;;;;13.52;59.33;102846.50;5044999;28;19917;-73
2022/11/13 01:12:13;;;;;;;;;;;;;;;13.46;59.81;102839.19;5043385;28;19912;-72
2022/11/13 01:14:38;;;;;;;;;;;;;;;13.45;59.36;102832.09;5047116;28;19908;-74
2022/11/13 01:17:03;;;;;;;;;;;;;;;13.47;59.80;102825.47;5043639;28;19925;-73
2022/11/13 01:19:29;;;;;;;;;;;;;;;13.40;59.88;102823.75;5043024;28;19917;-75
2022/11/13 01:21:54;;;;;;;;;;;;;;;13.49;59.47;102819.88;5054496;28;19916;-73
2022/11/13 01:24:19;;;;;;;;;;;;;;;13.52;59.21;102820.31;5054153;28;19927;-75
2022/11/13 01:26:44;;;;;;;;;;;;;;;13.48;59.60;102816.34;5055086;28;19952;-74
2022/11/13 01:29:11;;;;;;;;;;;;;;;13.49;59.61;102820.72;5054735;28;19921;-73
2022/11/13 01:31:36;;;;;;;;;;;;;;;13.53;59.14;102813.88;5051745;28;20281;-74
2022/11/13 01:34:01;;;;;;;;;;;;;;;13.50;59.08;102817.00;5045416;28;19923;-75
2022/11/13 01:36:27;;;;;;;;;;;;;;;13.52;59.30;102817.59;5043915;28;19921;-74
2022/11/13 01:38:53;;;;;;;;;;;;;;;13.46;59.20;102810.31;5045449;28;19923;-74
2022/11/13 01:41:20;;;;;;;;;;;;;;;13.26;59.71;102806.59;5043371;28;19917;-74
2022/11/13 01:43:45;;;;;;;;;;;;;;;13.39;59.83;102792.34;5038482;28;20000;-73
2022/11/13 01:46:14;;;;;;;;;;;;;;;13.45;59.22;102797.81;5034538;28;20004;-74
2022/11/13 01:48:58;;;;;;;;;;;;;;;13.47;59.50;102795.75;5034313;28;20012;-76
2022/11/13 01:51:30;;;;;;;;;;;;;;;13.54;58.94;102793.13;5034159;28;20323;-73
2022/11/13 01:53:56;;;;;;;;;;;;;;;13.58;58.98;102784.41;5034744;28;19909;-73
2022/11/13 01:56:22;;;;;;;;;;;;;;;13.51;59.06;102782.69;5034413;28;19921;-74
2022/11/13 01:58:57;;;;;;;;;;;;;;;13.52;58.85;102777.09;5034202;28;19913;-74
2022/11/13 02:01:22;;;;;;;;;;;;;;;13.46;59.05;102777.06;5034296;28;19921;-76
2022/11/13 02:03:48;;;;;;;;;;;;;;;13.47;59.02;102781.41;5034330;28;19982;-74
2022/11/13 02:06:13;;;;;;;;;;;;;;;13.43;58.71;102775.56;5034225;28;19920;-75
2022/11/13 02:08:38;;;;;;;;;;;;;;;13.45;58.92;102768.13;5034816;28;19901;-74
2022/11/13 02:11:04;;;;;;;;;;;;;;;13.42;58.81;102762.28;5034077;28;19925;-73
2022/11/13 02:13:29;;;;;;;;;;;;;;;13.34;58.76;102768.66;5033789;28;20369;-74
2022/11/13 02:15:55;;;;;;;;;;;;;;;13.30;58.75;102763.84;5034080;28;19926;-75
2022/11/13 02:18:21;;;;;;;;;;;;;;;13.32;59.02;102762.63;5033303;28;19921;-75
2022/11/13 02:21:12;;;;;;;;;;;;;;;13.32;58.88;102772.59;5033494;28;19909;-73
2022/11/13 02:23:40;;;;;;;;;;;;;;;13.22;59.24;102762.13;5033515;28;20016;-75
2022/11/13 02:26:07;;;;;;;;;;;;;;;13.17;59.16;102762.69;5032629;28;19947;-73
2022/11/13 02:28:32;;;;;;;;;;;;;;;13.15;59.08;102751.25;5036443;28;19917;-74
2022/11/13 02:31:05;;;;;;;;;;;;;;;13.08;59.09;102760.34;5053714;28;19913;-74
2022/11/13 02:33:31;;;;;;;;;;;;;;;13.10;58.87;102742.94;5053647;28;20017;-74
2022/11/13 02:35:57;;;;;;;;;;;;;;;13.07;59.40;102746.00;5052479;28;19917;-73
2022/11/13 02:38:22;;;;;;;;;;;;;;;13.09;59.33;102743.09;5051901;28;20327;-74
2022/11/13 02:40:47;;;;;;;;;;;;;;;13.01;59.49;102743.25;5051832;28;19919;-74
2022/11/13 02:43:12;;;;;;;;;;;;;;;13.14;59.10;102743.38;5053134;28;19916;-75
2022/11/13 02:45:38;;;;;;;;;;;;;;;12.83;59.92;102738.31;5053345;28;19963;-74
2022/11/13 02:48:03;;;;;;;;;;;;;;;12.96;59.61;102743.81;5053012;28;19955;-73
2022/11/13 02:50:29;;;;;;;;;;;;;;;13.15;59.26;102736.94;5053766;28;19933;-75
2022/11/13 02:52:54;;;;;;;;;;;;;;;13.14;58.97;102730.72;5053149;28;19920;-74
2022/11/13 02:55:19;;;;;;;;;;;;;;;13.20;58.59;102726.38;5053204;28;19925;-74
2022/11/13 02:57:45;;;;;;;;;;;;;;;13.17;58.81;102732.16;5052932;28;19949;-74
2022/11/13 03:00:10;;;;;;;;;;;;;;;13.18;58.89;102725.75;5052904;28;19922;-75
2022/11/13 03:02:36;;;;;;;;;;;;;;;13.09;58.85;102730.44;5053596;28;19916;-74
2022/11/13 03:05:02;;;;;;;;;;;;;;;13.17;58.80;102724.06;5052802;28;19917;-73
2022/11/13 03:07:27;;;;;;;;;;;;;;;13.19;58.89;102713.91;5053134;28;20015;-74
2022/11/13 03:09:52;;;;;;;;;;;;;;;13.19;58.46;102713.91;5052705;28;19948;-74
2022/11/13 03:12:17;;;;;;;;;;;;;;;13.20;58.52;102715.59;5052827;28;19916;-74
2022/11/13 03:14:43;;;;;;;;;;;;;;;13.14;58.65;102716.38;5053037;28;19912;-74
2022/11/13 03:17:08;;;;;;;;;;;;;;;13.09;58.96;102716.94;5050951;28;19921;-74
2022/11/13 03:19:33;;;;;;;;;;;;;;;13.14;58.90;102719.06;5052470;28;20316;-74
2022/11/13 03:21:58;;;;;;;;;;;;;;;13.05;58.70;102720.25;5052483;28;19916;-74
2022/11/13 03:24:24;;;;;;;;;;;;;;;13.04;58.63;102719.41;5041753;28;19955;-73
2022/11/13 03:26:49;;;;;;;;;;;;;;;12.99;58.70;102718.31;5052214;28;19923;-74
2022/11/13 03:29:14;;;;;;;;;;;;;;;12.93;59.13;102722.59;5052244;28;19917;-73
2022/11/13 03:31:39;;;;;;;;;;;;;;;13.01;58.51;102711.66;5051993;28;19923;-73
2022/11/13 03:34:05;;;;;;;;;;;;;;;12.98;58.83;102714.78;5052543;28;19966;-74
2022/11/13 03:36:30;;;;;;;;;;;;;;;12.94;59.04;102707.25;5052184;28;19921;-73
2022/11/13 03:38:55;;;;;;;;;;;;;;;12.93;59.09;102706.41;5052842;28;19935;-74
2022/11/13 03:41:21;;;;;;;;;;;;;;;12.94;58.85;102708.09;5052096;28;20051;-76
2022/11/13 03:43:46;;;;;;;;;;;;;;;12.92;58.77;102703.91;5051855;28;20383;-75
2022/11/13 03:46:11;;;;;;;;;;;;;;;12.97;58.63;102702.28;5051918;28;19920;-74
2022/11/13 03:48:37;;;;;;;;;;;;;;;12.96;58.79;102697.09;5051916;28;19924;-74
2022/11/13 03:51:02;;;;;;;;;;;;;;;13.00;58.82;102692.97;5051909;28;19970;-74
2022/11/13 03:53:28;;;;;;;;;;;;;;;12.99;58.76;102692.13;5052459;28;19905;-73
2022/11/13 03:55:53;;;;;;;;;;;;;;;13.02;58.77;102686.38;5051598;28;19917;-74
2022/11/13 03:58:18;;;;;;;;;;;;;;;13.00;58.46;102693.81;5051744;28;19921;-73
2022/11/13 04:00:47;;;;;;;;;;;;;;;12.98;58.60;102686.94;5051982;28;19917;-74
2022/11/13 04:03:12;;;;;;;;;;;;;;;12.94;58.50;102691.91;5052021;28;20362;-75
2022/11/13 04:05:37;;;;;;;;;;;;;;;12.80;59.11;102700.06;5052223;28;19935;-73
2022/11/13 04:08:03;;;;;;;;;;;;;;;12.81;59.00;102699.91;5051860;28;20391;-75
2022/11/13 04:10:28;;;;;;;;;;;;;;;12.88;58.80;102694.53;5051758;28;19916;-73
2022/11/13 04:12:53;;;;;;;;;;;;;;;12.78;58.82;102694.03;5051585;28;20505;-73
2022/11/13 04:15:19;;;;;;;;;;;;;;;12.78;58.57;102694.88;5051625;28;20498;-73
2022/11/13 04:17:44;;;;;;;;;;;;;;;12.75;58.85;102695.28;5052015;28;19917;-73
2022/11/13 04:20:09;;;;;;;;;;;;;;;12.81;58.43;102694.50;5051632;28;20402;-74
2022/11/13 04:22:35;;;;;;;;;;;;;;;12.74;58.79;102693.59;5051321;28;19913;-74
2022/11/13 04:25:00;;;;;;;;;;;;;;;12.74;58.64;102698.16;5035551;28;19921;-76
2022/11/13 04:27:25;;;;;;;;;;;;;;;12.73;58.63;102689.25;5032039;28;19916;-74
2022/11/13 04:29:50;;;;;;;;;;;;;;;12.77;58.84;102685.13;5030610;28;19951;-74
2022/11/13 04:32:15;;;;;;;;;;;;;;;12.70;58.53;102692.31;5032787;28;19917;-73
2022/11/13 04:34:41;;;;;;;;;;;;;;;12.66;58.49;102691.03;5051375;28;20422;-74
2022/11/13 04:37:06;;;;;;;;;;;;;;;12.56;58.53;102687.00;5051536;28;20399;-74
2022/11/13 04:39:32;;;;;;;;;;;;;;;12.50;59.48;102693.97;5051180;28;20348;-74
2022/11/13 04:44:41;;;;;;;;;;;;;;;12.63;59.02;102680.63;5051437;28;20012;-74
2022/11/13 04:47:06;;;;;;;;;;;;;;;12.64;58.72;102676.91;5051253;28;19987;-76
2022/11/13 04:49:31;;;;;;;;;;;;;;;12.53;58.73;102688.22;5051384;28;19917;-73
2022/11/13 04:51:56;;;;;;;;;;;;;;;12.52;59.01;102683.03;5051340;28;19916;-72
2022/11/13 04:54:22;;;;;;;;;;;;;;;12.47;58.81;102683.59;5051394;28;19970;-77
2022/11/13 04:56:47;;;;;;;;;;;;;;;12.52;58.77;102686.53;5051554;28;20007;-74
2022/11/13 04:59:12;;;;;;;;;;;;;;;12.50;59.21;102685.88;5051148;28;19913;-75
2022/11/13 05:01:37;;;;;;;;;;;;;;;12.59;58.77;102682.06;5049494;28;19924;-76
2022/11/13 05:04:03;;;;;;;;;;;;;;;12.42;59.84;102680.66;5051416;28;19920;-76
2022/11/13 05:06:28;;;;;;;;;;;;;;;12.43;58.89;102682.31;5051598;28;19923;-74
2022/11/13 05:08:53;;;;;;;;;;;;;;;12.38;58.93;102676.66;5050642;28;20399;-74
2022/11/13 05:11:19;;;;;;;;;;;;;;;12.27;59.44;102677.16;5051082;28;20380;-74
2022/11/13 05:13:44;;;;;;;;;;;;;;;12.34;59.10;102670.81;5051380;28;19928;-76
2022/11/13 05:16:10;;;;;;;;;;;;;;;12.32;58.92;102674.75;5051841;28;20007;-74
2022/11/13 05:18:36;;;;;;;;;;;;;;;12.30;58.80;102666.81;5051421;28;19927;-74
2022/11/13 05:21:02;;;;;;;;;;;;;;;12.33;58.76;102666.44;5051581;28;19919;-75
2022/11/13 05:23:27;;;;;;;;;;;;;;;12.30;59.08;102657.91;5048992;28;19909;-73
2022/11/13 05:25:59;;;;;;;;;;;;;;;12.31;58.72;102654.19;5031561;28;19921;-75
2022/11/13 05:28:25;;;;;;;;;;;;;;;12.24;59.02;102656.81;5031691;28;19917;-75
2022/11/13 05:30:50;;;;;;;;;;;;;;;12.23;59.04;102651.59;5031634;28;19932;-74
2022/11/13 05:33:15;;;;;;;;;;;;;;;12.19;58.82;102653.03;5031623;28;20385;-73
2022/11/13 05:35:40;;;;;;;;;;;;;;;12.15;58.82;102647.19;5042091;28;19923;-73
2022/11/13 05:38:06;;;;;;;;;;;;;;;12.10;58.93;102652.31;5048044;28;19966;-74
2022/11/13 05:40:31;;;;;;;;;;;;;;;12.06;58.95;102644.81;5039995;28;20408;-73
2022/11/13 05:42:56;;;;;;;;;;;;;;;12.15;58.77;102639.09;5039454;28;20410;-73
2022/11/13 05:45:22;;;;;;;;;;;;;;;12.09;58.71;102642.56;5041592;28;19959;-73
2022/11/13 05:47:47;;;;;;;;;;;;;;;12.13;58.50;102643.00;5040663;28;19940;-73
2022/11/13 05:50:13;;;;;;;;;;;;;;;11.88;60.12;102644.38;5041738;28;19984;-75
2022/11/13 05:52:38;;;;;;;;;;;;;;;11.96;59.28;102637.03;5041319;28;19913;-75
2022/11/13 05:55:04;;;;;;;;;;;;;;;12.02;59.13;102632.75;5042821;28;19947;-74
2022/11/13 05:57:29;;;;;;;;;;;;;;;11.89;59.31;102635.28;5045272;28;19921;-73
2022/11/13 05:59:54;;;;;;;;;;;;;;;12.03;58.76;102631.69;5043393;28;19996;-74
2022/11/13 06:02:20;;;;;;;;;;;;;;;11.97;58.74;102630.59;5044281;28;20380;-74
2022/11/13 06:04:47;;;;;;;;;;;;;;;11.87;58.92;102622.00;5042575;28;19916;-74
2022/11/13 06:07:12;;;;;;;;;;;;;;;11.83;58.96;102627.97;5043433;28;19947;-74
2022/11/13 06:09:37;;;;;;;;;;;;;;;11.80;59.20;102623.78;5042809;28;19960;-75
2022/11/13 06:12:02;;;;;;;;;;;;;;;11.86;58.85;102625.72;5044114;28;19908;-72
2022/11/13 06:14:28;;;;;;;;;;;;;;;11.76;59.30;102627.03;5043961;28;19909;-75
2022/11/13 06:16:53;;;;;;;;;;;;;;;11.82;59.10;102626.28;5043856;28;19921;-76
2022/11/13 06:19:18;;;;;;;;;;;;;;;11.67;59.20;102620.94;5044242;28;19979;-76
2022/11/13 06:21:43;;;;;;;;;;;;;;;11.62;59.55;102619.78;5042823;28;19924;-74
2022/11/13 06:24:10;;;;;;;;;;;;;;;11.62;59.26;102619.78;5047232;28;19913;-75
2022/11/13 06:26:35;;;;;;;;;;;;;;;11.67;59.30;102615.56;5044891;28;20027;-75
2022/11/13 06:29:02;;;;;;;;;;;;;;;11.72;59.30;102612.28;5041607;28;19925;-73
2022/11/13 06:31:28;;;;;;;;;;;;;;;11.70;59.24;102612.47;5046728;28;19917;-73
2022/11/13 06:33:54;;;;;;;;;;;;;;;11.69;59.21;102600.06;5044550;28;19986;-74
2022/11/13 06:36:20;;;;;;;;;;;;;;;11.76;59.31;102594.72;5044209;28;19928;-73
2022/11/13 06:38:46;;;;;;;;;;;;;;;11.77;59.12;102597.25;5043097;28;19924;-77
2022/11/13 06:41:13;;;;;;;;;;;;;;;11.80;59.21;102599.53;5043746;28;19913;-74
2022/11/13 06:43:38;;;;;;;;;;;;;;;11.78;59.65;102603.44;5044256;28;19920;-75
2022/11/13 06:46:05;;;;;;;;;;;;;;;11.90;58.82;102599.22;5042344;28;20387;-74
2022/11/13 06:48:30;;;;;;;;;;;;;;;11.85;59.05;102590.91;5043909;28;20291;-74
2022/11/13 06:50:59;;;;;;;;;;;;;;;11.82;59.17;102593.97;5044287;28;19924;-74
2022/11/13 06:53:24;;;;;;;;;;;;;;;11.79;59.33;102597.91;5042405;28;19913;-73
2022/11/13 06:55:50;;;;;;;;;;;;;;;11.77;59.22;102593.72;5043939;28;19917;-74
2022/11/13 06:58:15;;;;;;;;;;;;;;;11.86;58.97;102596.09;5043524;28;19913;-76
2022/11/13 07:00:41;;;;;;;;;;;;;;;11.85;58.68;102599.78;5042911;28;19924;-75
2022/11/13 07:03:14;;;;;;;;;;;;;;;11.80;58.95;102602.25;5043739;28;19962;-74
2022/11/13 07:05:39;;;;;;;;;;;;;;;11.64;59.20;102607.81;5065954;28;19925;-74
2022/11/13 07:08:04;;;;;;;;;;;;;;;11.75;58.72;102607.38;5043400;28;19923;-75
2022/11/13 07:10:30;;;;;;;;;;;;;;;11.78;59.08;102608.84;5043516;28;19928;-74
2022/11/13 07:12:57;;;;;;;;;;;;;;;11.76;58.94;102603.66;5041799;28;19924;-75
2022/11/13 07:15:22;;;;;;;;;;;;;;;11.74;58.91;102608.38;5041840;28;19928;-76
2022/11/13 07:17:48;;;;;;;;;;;;;;;11.77;59.29;102607.19;5041749;28;19913;-73
2022/11/13 07:20:13;;;;;;;;;;;;;;;11.85;59.09;102605.19;5041789;28;19921;-74
2022/11/13 07:22:38;;;;;;;;;;;;;;;11.79;59.04;102610.53;5042547;28;19917;-74
2022/11/13 07:25:03;;;;;;;;;;;;;;;11.78;59.12;102600.75;5043012;28;20005;-73
2022/11/13 07:27:29;;;;;;;;;;;;;;;11.74;58.92;102603.00;5042082;28;19972;-74
2022/11/13 07:29:54;;;;;;;;;;;;;;;11.85;59.13;102605.19;5043761;28;19948;-74
2022/11/13 07:32:19;;;;;;;;;;;;;;;11.87;59.19;102597.75;5042953;28;19917;-74
2022/11/13 07:34:44;;;;;;;;;;;;;;;11.87;59.27;102597.75;5041585;28;19930;-74
2022/11/13 07:37:10;;;;;;;;;;;;;;;11.91;59.16;102599.03;5041440;28;19924;-75
2022/11/13 07:39:35;;;;;;;;;;;;;;;11.93;58.94;102591.59;5041320;28;19921;-74
2022/11/13 07:42:01;;;;;;;;;;;;;;;11.98;59.12;102593.72;5048086;28;20090;-74
2022/11/13 07:44:26;;;;;;;;;;;;;;;11.99;59.02;102596.22;5041700;28;19909;-74
2022/11/13 07:46:51;;;;;;;;;;;;;;;12.04;59.27;102592.97;5041711;28;19936;-73
2022/11/13 07:49:17;;;;;;;;;;;;;;;12.15;59.07;102593.28;5041361;28;19917;-73
2022/11/13 07:51:42;;;;;;;;;;;;;;;12.23;59.17;102595.00;5041969;28;19916;-75
2022/11/13 07:54:07;;;;;;;;;;;;;;;12.32;59.22;102593.88;5041508;28;19913;-74
2022/11/13 07:56:32;;;;;;;;;;;;;;;12.38;59.11;102598.47;5042418;28;19986;-73
2022/11/13 07:58:58;;;;;;;;;;;;;;;12.52;58.78;102596.72;5041872;28;20054;-74
2022/11/13 08:01:23;;;;;;;;;;;;;;;12.60;59.24;102593.91;5041541;28;19941;-73
2022/11/13 08:03:48;;;;;;;;;;;;;;;12.70;58.88;102597.06;5039515;28;19923;-73
2022/11/13 08:06:13;;;;;;;;;;;;;;;12.84;59.04;102606.91;5038885;28;19912;-74
2022/11/13 08:08:39;;;;;;;;;;;;;;;12.96;58.76;102600.78;5039062;28;20381;-72
2022/11/13 08:11:05;;;;;;;;;;;;;;;12.91;59.10;102605.13;5040044;28;19927;-74
2022/11/13 08:13:30;;;;;;;;;;;;;;;12.95;58.83;102603.69;5040820;28;19913;-73
2022/11/13 08:15:59;;;;;;;;;;;;;;;13.03;58.62;102607.09;5044121;28;19917;-74
2022/11/13 08:18:25;;;;;;;;;;;;;;;12.93;59.13;102595.78;5042765;28;19964;-70
2022/11/13 08:20:50;;;;;;;;;;;;;;;13.12;58.99;102592.41;5040427;28;19928;-70
2022/11/13 08:23:16;;;;;;;;;;;;;;;13.20;58.78;102588.72;5041792;28;20383;-69
2022/11/13 08:25:41;;;;;;;;;;;;;;;13.26;58.64;102592.47;5040029;28;20291;-71
2022/11/13 08:28:06;;;;;;;;;;;;;;;13.33;58.73;102598.72;5042395;28;20007;-71
2022/11/13 08:30:31;;;;;;;;;;;;;;;13.31;58.51;102595.41;5040375;28;19921;-72
2022/11/13 08:32:56;;;;;;;;;;;;;;;13.40;58.39;102594.22;5037942;28;19913;-71
2022/11/13 08:35:22;;;;;;;;;;;;;;;13.38;58.29;102591.72;5041160;28;19924;-72
2022/11/13 08:37:47;;;;;;;;;;;;;;;13.45;58.45;102589.03;5041211;28;19960;-71
2022/11/13 08:40:12;;;;;;;;;;;;;;;13.42;58.40;102581.34;5046292;28;19940;-71
2022/11/13 08:42:38;;;;;;;;;;;;;;;13.51;58.53;102574.72;5048061;28;19939;-71
2022/11/13 08:45:03;;;;;;;;;;;;;;;13.47;58.50;102570.75;5049422;28;19956;-72
2022/11/13 08:47:29;;;;;;;;;;;;;;;13.51;58.57;102562.06;5048060;28;19909;-71
2022/11/13 08:49:54;;;;;;;;;;;;;;;13.49;58.45;102557.88;5047883;28;20371;-72
2022/11/13 08:52:20;;;;;;;;;;;;;;;13.65;58.17;102552.97;5051632;28;20149;-73
2022/11/13 08:54:45;;;;;;;;;;;;;;;13.67;58.06;102560.84;5051727;28;20426;-71
2022/11/13 08:57:10;;;;;;;;;;;;;;;13.77;58.11;102553.19;5051488;28;19958;-70
2022/11/13 08:59:36;;;;;;;;;;;;;;;13.82;57.89;102561.50;5052396;28;19995;-74
2022/11/13 09:02:01;;;;;;;;;;;;;;;13.86;57.43;102555.50;5050010;28;19969;-70
2022/11/13 09:04:26;;;;;;;;;;;;;;;13.89;57.70;102551.56;5051682;28;20373;-71
2022/11/13 09:06:51;;;;;;;;;;;;;;;14.00;57.45;102546.38;5051397;28;19916;-70
2022/11/13 09:09:17;;;;;;;;;;;;;;;14.05;57.68;102553.88;5047130;28;20007;-72
2022/11/13 09:11:42;;;;;;;;;;;;;;;14.12;57.52;102543.88;5031696;28;19920;-73
2022/11/13 09:14:07;;;;;;;;;;;;;;;14.17;57.35;102552.19;5044001;28;19917;-71
2022/11/13 09:16:33;;;;;;;;;;;;;;;14.18;57.28;102559.28;5051320;28;19917;-72
2022/11/13 09:18:58;;;;;;;;;;;;;;;14.42;56.87;102550.59;5051541;28;19912;-73
2022/11/13 09:21:23;;;;;;;;;;;;;;;13.82;58.17;102558.81;5051221;28;20513;-72
2022/11/13 09:23:49;;;;;;;;;;;;;;;14.45;56.89;102549.31;5046081;28;19995;-71
2022/11/13 09:26:14;;;;;;;;;;;;;;;14.53;56.63;102544.53;5031625;28;20007;-71
2022/11/13 09:28:40;;;;;;;;;;;;;;;14.56;56.42;102544.13;5032514;28;19921;-71
2022/11/13 09:31:05;;;;;;;;;;;;;;;14.45;56.80;102536.63;5035124;28;19924;-73
2022/11/13 09:33:30;;;;;;;;;;;;;;;14.67;56.57;102535.38;5035164;28;19917;-73
2022/11/13 09:35:56;;;;;;;;;;;;;;;14.77;56.48;102534.94;5035517;28;19917;-71
2022/11/13 09:38:21;;;;;;;;;;;;;;;14.82;56.46;102532.41;5044777;28;19927;-71
2022/11/13 09:40:51;;;;;;;;;;;;;;;14.59;56.35;102529.34;5053215;28;19917;-72
2022/11/13 09:43:36;;;;;;;;;;;;;;;14.66;56.36;102530.19;5048741;28;19967;-71
2022/11/13 09:46:05;;;;;;;;;;;;;;;15.18;55.71;102532.72;5023583;28;19985;-72
2022/11/13 09:48:36;;;;;;;;;;;;;;;15.33;55.35;102527.84;5023830;28;19923;-72
2022/11/13 09:51:11;;;;;;;;;;;;;;;15.49;54.56;102526.56;5012980;28;20029;-71
2022/11/13 09:53:38;;;;;;;;;;;;;;;15.59;54.63;102526.94;5021258;28;19921;-71
2022/11/13 09:56:15;;;;;;;;;;;;;;;15.27;55.75;102520.59;5027845;28;19913;-70
2022/11/13 09:58:47;;;;;;;;;;;;;;;15.43;54.87;102519.31;5026995;28;20289;-71
2022/11/13 10:01:15;;;;;;;;;;;;;;;15.79;54.58;102522.22;5028024;28;20003;-70
2022/11/13 10:03:45;;;;;;;;;;;;;;;16.10;54.15;102516.78;5023688;28;19917;-71
2022/11/13 10:06:33;;;;;;;;;;;;;;;16.30;53.83;102511.19;5028910;28;19909;-72
2022/11/13 10:09:17;;;;;;;;;;;;;;;16.37;53.23;102510.06;4985166;28;19933;-72
2022/11/13 10:11:47;;;;;;;;;;;;;;;16.43;53.21;102517.31;4985627;28;19910;-72
2022/11/13 10:14:12;;;;;;;;;;;;;;;16.60;52.82;102515.75;4987996;28;19941;-71
2022/11/13 10:16:44;;;;;;;;;;;;;;;16.69;52.40;102517.09;4988170;28;20523;-73
2022/11/13 10:19:13;;;;;;;;;;;;;;;16.74;51.99;102516.44;4987469;28;19917;-72
2022/11/13 10:21:38;;;;;;;;;;;;;;;16.83;51.93;102511.53;4985685;28;20397;-75
2022/11/13 10:24:09;;;;;;;;;;;;;;;16.98;51.74;102514.72;4981720;28;19914;-72
2022/11/13 10:26:35;;;;;;;;;;;;;;;16.94;51.64;102506.19;4985687;28;19921;-72
2022/11/13 10:29:05;;;;;;;;;;;;;;;16.68;52.25;102510.03;4982850;28;19914;-72
2022/11/13 10:31:39;;;;;;;;;;;;;;;17.05;51.81;102512.75;4984331;28;19917;-71
2022/11/13 10:34:05;;;;;;;;;;;;;;;17.29;51.37;102504.50;4984906;28;20011;-72
2022/11/13 10:36:49;;;;;;;;;;;;;;;17.32;50.86;102500.47;4988573;28;19973;-73
2022/11/13 10:39:14;;;;;;;;;;;;;;;17.63;50.00;102500.28;4987793;28;20463;-72
2022/11/13 10:41:49;;;;;;;;;;;;;;;17.71;49.77;102491.78;4988132;28;19917;-72
2022/11/13 10:44:22;;;;;;;;;;;;;;;17.75;49.47;102487.53;4987943;28;19926;-71
2022/11/13 10:46:47;;;;;;;;;;;;;;;17.72;49.74;102479.03;5027418;28;19925;-72
2022/11/13 10:49:19;;;;;;;;;;;;;;;17.80;49.95;102476.81;5040819;28;19929;-72
2022/11/13 10:51:53;;;;;;;;;;;;;;;17.90;49.92;102474.34;5040571;28;19969;-71
2022/11/13 10:54:20;;;;;;;;;;;;;;;18.15;48.95;102468.69;5042646;28;19951;-71
2022/11/13 10:56:54;;;;;;;;;;;;;;;18.22;49.19;102475.69;5042740;28;19912;-72
2022/11/13 10:59:20;;;;;;;;;;;;;;;18.32;49.63;102465.03;5035556;28;19925;-70
2022/11/13 11:01:46;;;;;;;;;;;;;;;18.31;48.94;102460.66;5043339;28;19935;-72
2022/11/13 11:04:11;;;;;;;;;;;;;;;18.34;48.38;102459.34;5046642;28;19999;-72
2022/11/13 11:06:38;;;;;;;;;;;;;;;18.50;48.04;102458.66;5041860;28;20007;-71
2022/11/13 11:09:12;;;;;;;;;;;;;;;18.73;47.39;102450.44;5043495;28;19919;-74
2022/11/13 11:14:25;;;;;;;;;;;;;;;18.78;48.07;102444.28;5043042;28;19923;-73
2022/11/13 11:16:51;;;;;;;;;;;;;;;18.93;47.94;102448.16;5043750;28;20381;-73
2022/11/13 11:19:18;;;;;;;;;;;;;;;18.94;47.89;102440.81;5030821;28;19921;-71
2022/11/13 11:21:45;;;;;;;;;;;;;;;19.00;47.70;102437.13;5039731;28;19963;-75
2022/11/13 11:24:17;;;;;;;;;;;;;;;18.73;48.63;102431.38;5043586;28;19968;-71
2022/11/13 11:26:42;;;;;;;;;;;;;;;18.86;47.88;102428.41;5042742;28;19909;-71
2022/11/13 11:29:13;;;;;;;;;;;;;;;19.04;47.67;102427.41;5046115;28;20269;-72
2022/11/13 11:31:44;;;;;;;;;;;;;;;18.84;48.80;102425.09;5032666;28;19943;-73
2022/11/13 11:34:33;;;;;;;;;;;;;;;18.98;48.54;102415.59;5032152;28;20556;-71
2022/11/13 11:37:11;;;;;;;;;;;;;;;18.73;49.30;102408.78;5033344;28;19921;-73
2022/11/13 11:39:36;;;;;;;;;;;;;;;19.21;48.00;102412.75;5045572;28;19921;-72
2022/11/13 11:42:04;;;;;;;;;;;;;;;19.13;48.07;102415.88;5051255;28;19917;-72
2022/11/13 11:44:54;;;;;;;;;;;;;;;19.30;48.14;102402.28;5052184;28;19912;-72
2022/11/13 11:47:19;;;;;;;;;;;;;;;19.28;48.15;102405.25;5052626;28;19948;-71
2022/11/13 11:49:44;;;;;;;;;;;;;;;19.50;47.53;102393.69;5052422;28;19959;-72
2022/11/13 11:52:09;;;;;;;;;;;;;;;19.62;47.16;102387.06;5048138;28;19924;-72
2022/11/13 11:54:42;;;;;;;;;;;;;;;19.66;46.84;102379.19;5031914;28;19971;-72
2022/11/13 11:57:17;;;;;;;;;;;;;;;19.91;46.06;102376.91;5031678;28;20379;-72
2022/11/13 11:59:42;;;;;;;;;;;;;;;19.48;47.87;102374.81;5032630;28;19909;-73
2022/11/13 12:02:23;;;;;;;;;;;;;;;19.75;46.74;102366.81;5032150;28;19924;-72
2022/11/13 12:04:54;;;;;;;;;;;;;;;19.70;46.68;102366.72;5041671;28;19916;-74
2022/11/13 12:07:22;;;;;;;;;;;;;;;20.13;45.51;102362.22;5041579;28;20277;-73
2022/11/13 12:10:03;;;;;;;;;;;;;;;19.89;46.08;102357.22;5040357;28;19921;-73
2022/11/13 12:12:47;;;;;;;;;;;;;;;20.20;45.31;102353.88;5039609;28;20288;-72
2022/11/13 12:15:17;;;;;;;;;;;;;;;20.22;44.98;102354.47;5040501;28;20264;-71
2022/11/13 12:17:42;;;;;;;;;;;;;;;19.96;46.47;102353.22;5052776;28;19913;-72
2022/11/13 12:20:19;;;;;;;;;;;;;;;20.13;45.50;102340.38;5052101;28;19917;-71
2022/11/13 12:22:52;;;;;;;;;;;;;;;19.82;46.00;102348.38;5043554;28;19927;-71
2022/11/13 12:25:20;;;;;;;;;;;;;;;19.96;45.70;102339.59;5049819;28;19982;-73
2022/11/13 12:27:56;;;;;;;;;;;;;;;20.17;44.78;102340.69;5051354;28;19920;-71
2022/11/13 12:30:27;;;;;;;;;;;;;;;20.26;44.99;102332.94;5051857;28;19918;-72
2022/11/13 12:32:56;;;;;;;;;;;;;;;20.26;45.34;102322.00;5050452;28;19919;-71
2022/11/13 12:35:22;;;;;;;;;;;;;;;20.44;44.50;102324.44;5051727;28;19928;-72
2022/11/13 12:37:48;;;;;;;;;;;;;;;20.53;44.58;102322.88;5051648;28;20008;-72
2022/11/13 12:40:19;;;;;;;;;;;;;;;20.55;44.72;102327.03;5050572;28;20227;-73